Time;durP1;ratioP1;P1;durP2;ratioP2;P2;SDS_P1;SDS_P2;PMS_P1;PMS_P2;Temp;Humidity;BMP_temperature;BMP_pressure;BME280_temperature;BME280_humidity;BME280_pressure;Samples;Min_cycle;Max_cycle;Signal;HPM_P1;HPM_P2
2022/01/29 00:01:13;;;;;;;0.80;0.52;;;6.30;99.90;;;;;;5012317;28;20080;-87
2022/01/29 00:03:39;;;;;;;1.15;0.50;;;6.30;99.90;;;;;;5015825;28;20025;-76
2022/01/29 00:06:05;;;;;;;1.95;1.45;;;6.30;99.90;;;;;;5006898;28;20030;-87
2022/01/29 00:08:31;;;;;;;0.75;0.75;;;6.30;99.90;;;;;;5009788;28;20029;-87
2022/01/29 00:11:06;;;;;;;0.30;0.30;;;6.20;99.90;;;;;;5013207;28;20029;-85
2022/01/29 00:13:32;;;;;;;4.40;0.98;;;6.20;99.90;;;;;;5020777;28;20565;-87
2022/01/29 00:15:58;;;;;;;2.22;1.30;;;6.30;99.90;;;;;;5003179;28;20106;-87
2022/01/29 00:18:23;;;;;;;0.45;0.45;;;6.20;99.90;;;;;;5008956;28;20030;-87
2022/01/29 00:20:49;;;;;;;4.65;0.90;;;6.20;99.90;;;;;;5013312;28;20026;-76
2022/01/29 00:23:15;;;;;;;0.63;0.63;;;6.20;99.90;;;;;;5012921;28;20588;-87
2022/01/29 00:25:40;;;;;;;0.20;0.20;;;6.20;99.90;;;;;;5001675;28;20037;-76
2022/01/29 00:28:06;;;;;;;0.77;0.77;;;6.20;99.90;;;;;;5010325;28;20030;-87
2022/01/29 00:30:39;;;;;;;0.20;0.20;;;6.20;99.90;;;;;;5013220;28;20588;-76
2022/01/29 00:33:05;;;;;;;0.70;0.70;;;6.20;99.90;;;;;;5013188;28;20022;-76
2022/01/29 00:35:34;;;;;;;0.08;0.08;;;6.20;99.90;;;;;;5011866;28;20038;-87
2022/01/29 00:37:59;;;;;;;1.33;1.27;;;6.20;99.90;;;;;;5012719;28;20036;-87
2022/01/29 00:40:25;;;;;;;0.50;0.47;;;6.30;99.90;;;;;;5012894;28;20034;-76
2022/01/29 00:42:51;;;;;;;0.30;0.30;;;6.30;99.90;;;;;;5011711;28;20069;-79
2022/01/29 00:45:17;;;;;;;7.65;0.85;;;6.30;99.90;;;;;;5017572;28;20038;-76
2022/01/29 00:47:43;;;;;;;4.18;2.03;;;6.30;99.90;;;;;;5016376;28;20064;-85
2022/01/29 00:50:11;;;;;;;4.65;1.65;;;6.30;99.90;;;;;;5016586;28;20034;-87
2022/01/29 00:52:38;;;;;;;0.50;0.50;;;6.30;99.90;;;;;;5016416;28;20032;-77
2022/01/29 00:55:08;;;;;;;2.88;1.73;;;6.30;99.90;;;;;;5025404;28;20037;-76
2022/01/29 00:57:37;;;;;;;0.40;0.40;;;6.20;99.90;;;;;;5016718;28;20041;-76
2022/01/29 01:00:05;;;;;;;0.25;0.25;;;6.20;99.90;;;;;;5015219;28;20478;-86
2022/01/29 01:02:30;;;;;;;2.45;2.22;;;6.20;99.90;;;;;;5015383;28;20076;-76
2022/01/29 01:04:57;;;;;;;0.28;0.28;;;6.20;99.90;;;;;;5034653;28;20037;-76
2022/01/29 01:07:25;;;;;;;0.95;0.95;;;6.20;99.90;;;;;;5016007;28;20401;-76
2022/01/29 01:09:51;;;;;;;2.20;1.65;;;6.20;99.90;;;;;;5015527;28;20022;-77
2022/01/29 01:12:16;;;;;;;1.15;0.70;;;6.20;99.90;;;;;;5015585;28;20030;-76
2022/01/29 01:14:42;;;;;;;2.17;1.35;;;6.20;99.90;;;;;;5022450;28;20101;-76
2022/01/29 01:17:08;;;;;;;2.08;1.48;;;6.30;99.90;;;;;;5014853;28;20118;-87
2022/01/29 01:19:34;;;;;;;0.25;0.25;;;6.30;99.90;;;;;;5016107;28;20113;-87
2022/01/29 01:22:00;;;;;;;0.47;0.47;;;6.20;99.90;;;;;;5024821;28;20061;-84
2022/01/29 01:24:26;;;;;;;0.98;0.98;;;6.20;99.90;;;;;;5016053;28;20030;-76
2022/01/29 01:26:52;;;;;;;0.25;0.25;;;6.20;99.90;;;;;;5015787;28;20057;-77
2022/01/29 01:29:18;;;;;;;0.82;0.82;;;6.20;99.90;;;;;;5009899;28;20030;-76
2022/01/29 01:31:45;;;;;;;3.47;2.25;;;6.20;99.90;;;;;;5012714;28;20455;-86
2022/01/29 01:34:16;;;;;;;0.85;0.85;;;6.20;99.90;;;;;;5015910;28;20025;-77
2022/01/29 01:36:48;;;;;;;0.68;0.65;;;6.20;99.90;;;;;;5012786;28;20022;-76
2022/01/29 01:39:18;;;;;;;3.40;1.17;;;6.10;99.90;;;;;;5015343;28;20022;-76
2022/01/29 01:41:53;;;;;;;1.30;1.25;;;6.20;99.90;;;;;;5015896;28;20489;-86
2022/01/29 01:44:19;;;;;;;4.00;1.83;;;6.20;99.90;;;;;;5015941;28;20363;-76
2022/01/29 01:46:45;;;;;;;0.63;0.63;;;6.20;99.90;;;;;;5009744;28;20026;-76
2022/01/29 01:49:11;;;;;;;1.30;1.20;;;6.20;99.90;;;;;;5009419;28;20033;-77
2022/01/29 01:51:37;;;;;;;2.50;1.95;;;6.20;99.90;;;;;;5015428;28;20112;-86
2022/01/29 01:54:03;;;;;;;0.20;0.20;;;6.20;99.90;;;;;;5015006;28;20056;-79
2022/01/29 01:56:29;;;;;;;1.98;1.88;;;6.20;99.90;;;;;;5021524;28;20022;-86
2022/01/29 01:58:58;;;;;;;0.63;0.47;;;6.20;99.90;;;;;;5016534;28;20228;-76
2022/01/29 02:01:24;;;;;;;11.82;1.58;;;6.10;99.90;;;;;;5012058;28;20097;-76
2022/01/29 02:03:50;;;;;;;0.43;0.43;;;6.10;99.90;;;;;;5010890;28;20169;-76
2022/01/29 02:06:17;;;;;;;0.80;0.77;;;6.10;99.90;;;;;;5016434;28;20109;-87
2022/01/29 02:08:42;;;;;;;0.47;0.47;;;6.10;99.90;;;;;;5014972;28;20018;-76
2022/01/29 02:11:09;;;;;;;0.30;0.30;;;6.20;99.90;;;;;;5015119;28;20025;-87
2022/01/29 02:13:35;;;;;;;0.85;0.85;;;6.20;99.90;;;;;;5014437;28;20018;-87
2022/01/29 02:16:04;;;;;;;3.97;2.17;;;6.20;99.90;;;;;;5015610;28;20105;-81
2022/01/29 02:18:30;;;;;;;1.33;0.93;;;6.20;99.90;;;;;;5014890;28;20504;-76
2022/01/29 02:20:58;;;;;;;0.60;0.60;;;6.10;99.90;;;;;;5015240;28;20033;-86
2022/01/29 02:23:24;;;;;;;0.28;0.28;;;6.10;99.90;;;;;;5014845;28;20042;-76
2022/01/29 02:25:50;;;;;;;0.93;0.93;;;6.10;99.90;;;;;;5014987;28;20025;-76
2022/01/29 02:28:21;;;;;;;0.52;0.52;;;6.10;99.90;;;;;;5014674;28;20026;-76
2022/01/29 02:30:56;;;;;;;1.55;0.75;;;6.10;99.90;;;;;;5013478;28;20084;-76
2022/01/29 02:33:22;;;;;;;0.30;0.30;;;6.10;99.90;;;;;;5011706;28;20022;-79
2022/01/29 02:35:50;;;;;;;0.30;0.30;;;6.10;99.90;;;;;;5006311;28;20053;-76
2022/01/29 02:38:20;;;;;;;1.27;1.25;;;6.10;99.90;;;;;;5015655;28;20026;-87
2022/01/29 02:40:50;;;;;;;0.47;0.47;;;6.10;99.90;;;;;;5022247;28;20393;-87
2022/01/29 02:43:17;;;;;;;1.05;1.05;;;6.10;99.90;;;;;;5014637;28;20493;-76
2022/01/29 02:45:44;;;;;;;1.08;0.38;;;6.10;99.90;;;;;;5013948;28;20022;-87
2022/01/29 02:48:10;;;;;;;1.35;1.25;;;6.10;99.90;;;;;;5014047;28;20373;-87
2022/01/29 02:50:37;;;;;;;0.30;0.30;;;6.10;99.90;;;;;;5012965;28;20026;-76
2022/01/29 02:53:03;;;;;;;3.92;1.60;;;6.00;99.90;;;;;;5012922;28;20140;-87
2022/01/29 02:55:29;;;;;;;0.40;0.40;;;6.00;99.90;;;;;;5013052;28;20109;-76
2022/01/29 02:57:56;;;;;;;0.35;0.35;;;6.00;99.90;;;;;;5015247;28;20058;-76
2022/01/29 03:00:23;;;;;;;1.85;1.65;;;6.10;99.90;;;;;;5014335;28;20022;-87
2022/01/29 03:02:49;;;;;;;0.63;0.63;;;6.10;99.90;;;;;;5012727;28;20084;-87
2022/01/29 03:05:14;;;;;;;0.95;0.88;;;6.10;99.90;;;;;;5001971;28;20011;-87
2022/01/29 03:07:40;;;;;;;0.15;0.15;;;6.10;99.90;;;;;;5012576;28;20030;-76
2022/01/29 03:10:07;;;;;;;0.65;0.65;;;6.00;99.90;;;;;;5012933;28;20029;-86
2022/01/29 03:12:33;;;;;;;0.13;0.13;;;6.10;99.90;;;;;;5013567;28;20096;-76
2022/01/29 03:14:58;;;;;;;1.95;1.10;;;6.00;99.90;;;;;;5014009;28;20485;-76
2022/01/29 03:17:24;;;;;;;0.80;0.52;;;6.00;99.90;;;;;;5002973;28;20037;-76
2022/01/29 03:19:52;;;;;;;0.40;0.40;;;6.00;99.90;;;;;;5017001;28;20010;-86
2022/01/29 03:22:18;;;;;;;4.18;2.10;;;6.00;99.90;;;;;;5013498;28;20030;-76
2022/01/29 03:24:44;;;;;;;0.77;0.77;;;6.00;99.90;;;;;;5012678;28;20030;-77
2022/01/29 03:27:09;;;;;;;2.28;1.65;;;6.00;99.90;;;;;;5014171;28;20485;-87
2022/01/29 03:29:35;;;;;;;0.20;0.20;;;6.00;99.90;;;;;;5027116;28;20026;-87
2022/01/29 03:32:01;;;;;;;7.70;3.85;;;6.00;99.90;;;;;;5013754;28;20026;-76
2022/01/29 03:34:26;;;;;;;1.35;1.25;;;6.00;99.90;;;;;;5012942;28;20056;-77
2022/01/29 03:36:55;;;;;;;0.32;0.32;;;6.00;99.90;;;;;;5021657;28;20010;-83
2022/01/29 03:39:21;;;;;;;0.47;0.47;;;6.00;99.90;;;;;;5015093;28;20026;-77
2022/01/29 03:41:47;;;;;;;1.35;0.90;;;6.00;99.90;;;;;;5013648;28;20033;-87
2022/01/29 03:44:12;;;;;;;2.15;1.38;;;6.00;99.90;;;;;;5013618;28;20477;-86
2022/01/29 03:46:38;;;;;;;0.43;0.38;;;5.90;99.90;;;;;;5012055;28;20084;-76
2022/01/29 03:49:04;;;;;;;0.93;0.93;;;5.90;99.90;;;;;;5012109;28;20120;-76
2022/01/29 03:51:30;;;;;;;1.45;1.35;;;5.90;99.90;;;;;;5011364;28;20032;-87
2022/01/29 03:53:55;;;;;;;1.65;1.55;;;5.90;99.90;;;;;;5013235;28;20511;-87
2022/01/29 03:56:21;;;;;;;1.55;1.17;;;5.90;99.90;;;;;;5012072;28;20042;-77
2022/01/29 03:58:46;;;;;;;0.60;0.60;;;5.90;99.90;;;;;;5012542;28;20052;-86
2022/01/29 04:01:12;;;;;;;0.57;0.57;;;5.90;99.90;;;;;;4997329;28;20109;-87
2022/01/29 04:03:38;;;;;;;1.52;1.42;;;5.90;99.90;;;;;;5009433;28;20021;-86
2022/01/29 04:06:04;;;;;;;3.75;0.80;;;5.90;99.90;;;;;;5003052;28;20030;-87
2022/01/29 04:08:32;;;;;;;1.02;1.00;;;5.90;99.90;;;;;;5003062;28;20080;-87
2022/01/29 04:10:58;;;;;;;0.40;0.40;;;5.90;99.90;;;;;;5006672;28;20109;-87
2022/01/29 04:13:26;;;;;;;2.42;0.98;;;5.90;99.90;;;;;;5007670;28;20101;-76
2022/01/29 04:15:52;;;;;;;0.75;0.75;;;5.90;99.90;;;;;;5004177;28;20109;-84
2022/01/29 04:18:18;;;;;;;0.80;0.80;;;5.90;99.90;;;;;;5011857;28;20552;-76
2022/01/29 04:20:44;;;;;;;3.17;1.00;;;5.90;99.90;;;;;;5012654;28;20105;-76
2022/01/29 04:23:10;;;;;;;0.30;0.30;;;5.90;99.90;;;;;;5017155;28;20022;-76
2022/01/29 04:25:36;;;;;;;0.32;0.22;;;5.90;99.90;;;;;;5017134;28;20054;-87
2022/01/29 04:28:03;;;;;;;0.25;0.25;;;5.90;99.90;;;;;;5016617;28;20532;-76
2022/01/29 04:30:31;;;;;;;0.85;0.65;;;5.90;99.90;;;;;;5017171;28;20021;-76
2022/01/29 04:35:24;;;;;;;1.30;0.82;;;5.90;99.90;;;;;;5006055;28;20045;-76
2022/01/29 04:37:50;;;;;;;0.20;0.20;;;5.90;99.90;;;;;;5013107;28;20408;-85
2022/01/29 04:40:16;;;;;;;4.05;2.65;;;5.90;99.90;;;;;;5017379;28;20455;-87
2022/01/29 04:42:42;;;;;;;1.90;1.80;;;5.90;99.90;;;;;;5021204;28;20030;-87
2022/01/29 04:45:08;;;;;;;0.70;0.70;;;5.90;99.90;;;;;;5010551;28;20042;-87
2022/01/29 04:47:33;;;;;;;8.48;1.98;;;5.90;99.90;;;;;;5009608;28;20052;-87
2022/01/29 04:49:59;;;;;;;0.17;0.17;;;5.90;99.90;;;;;;5015145;28;20397;-87
2022/01/29 04:52:25;;;;;;;0.10;0.10;;;5.90;99.90;;;;;;5016616;28;20378;-87
2022/01/29 04:54:50;;;;;;;9.10;1.15;;;5.90;99.90;;;;;;5010698;28;20101;-76
2022/01/29 04:57:16;;;;;;;1.38;1.30;;;6.00;99.90;;;;;;5009645;28;20424;-87
2022/01/29 04:59:42;;;;;;;0.73;0.73;;;6.00;99.90;;;;;;5016404;28;20048;-76
2022/01/29 05:02:07;;;;;;;1.00;0.98;;;6.00;99.90;;;;;;5029319;28;20401;-76
2022/01/29 05:04:33;;;;;;;0.15;0.15;;;6.00;99.90;;;;;;5015706;28;20032;-76
2022/01/29 05:06:59;;;;;;;0.43;0.43;;;6.00;99.90;;;;;;5016248;28;20405;-76
2022/01/29 05:09:24;;;;;;;0.15;0.15;;;6.00;99.90;;;;;;5016287;28;20048;-87
2022/01/29 05:11:54;;;;;;;0.43;0.43;;;6.00;99.90;;;;;;5013194;28;20022;-86
2022/01/29 05:14:34;;;;;;;0.05;0.05;;;6.00;99.90;;;;;;5016256;28;20048;-87
2022/01/29 05:27:54;;;;;;;4.60;1.70;;;5.90;99.90;;;;;;5013274;28;20456;-77
2022/01/29 05:30:19;;;;;;;0.08;0.08;;;5.90;99.90;;;;;;5016177;28;20030;-87
2022/01/29 05:32:45;;;;;;;0.77;0.40;;;5.90;99.90;;;;;;5015846;28;20025;-87
2022/01/29 05:35:11;;;;;;;0.45;0.20;;;5.90;99.90;;;;;;5015853;28;20029;-88
2022/01/29 05:37:37;;;;;;;0.47;0.47;;;5.90;99.90;;;;;;5009862;28;20397;-87
2022/01/29 05:40:03;;;;;;;0.85;0.25;;;5.90;99.90;;;;;;5015826;28;20014;-76
2022/01/29 05:42:28;;;;;;;0.90;0.90;;;5.90;99.90;;;;;;5012728;28;20029;-76
2022/01/29 05:44:54;;;;;;;0.20;0.20;;;5.90;99.90;;;;;;5015779;28;20019;-86
2022/01/29 05:47:20;;;;;;;0.47;0.47;;;5.90;99.90;;;;;;5014992;28;20037;-87
2022/01/29 05:49:45;;;;;;;1.63;1.40;;;5.90;99.90;;;;;;5016007;28;20096;-87
2022/01/29 05:52:11;;;;;;;0.45;0.45;;;5.90;99.90;;;;;;5015589;28;20432;-86
2022/01/29 05:54:36;;;;;;;4.32;1.63;;;5.90;99.90;;;;;;5011066;28;20053;-76
2022/01/29 05:57:02;;;;;;;0.68;0.68;;;5.90;99.90;;;;;;5015463;28;20534;-76
2022/01/29 05:59:28;;;;;;;0.90;0.45;;;6.00;99.90;;;;;;5011930;28;20072;-76
2022/01/29 06:01:54;;;;;;;0.60;0.60;;;5.90;99.90;;;;;;5014317;28;20030;-87
2022/01/29 06:04:19;;;;;;;0.82;0.47;;;6.00;99.90;;;;;;5014604;28;20022;-86
2022/01/29 06:06:46;;;;;;;0.65;0.65;;;5.90;99.90;;;;;;5011503;28;20026;-87
2022/01/29 06:09:11;;;;;;;2.10;0.63;;;6.00;99.90;;;;;;5006755;28;20092;-87
2022/01/29 06:11:37;;;;;;;0.70;0.70;;;5.90;99.90;;;;;;5015587;28;20022;-76
2022/01/29 06:14:03;;;;;;;1.23;0.73;;;5.90;99.90;;;;;;5013788;28;20018;-76
2022/01/29 06:16:29;;;;;;;0.45;0.45;;;5.90;99.90;;;;;;5014858;28;20037;-76
2022/01/29 06:18:55;;;;;;;0.45;0.45;;;5.90;99.90;;;;;;5010841;28;20022;-87
2022/01/29 06:21:20;;;;;;;1.13;1.13;;;5.90;99.90;;;;;;5008569;28;20033;-76
2022/01/29 06:23:46;;;;;;;0.65;0.45;;;5.90;99.90;;;;;;5014829;28;20030;-76
2022/01/29 06:26:13;;;;;;;0.82;0.82;;;5.90;99.90;;;;;;5015046;28;20034;-87
2022/01/29 06:28:40;;;;;;;4.75;0.90;;;5.90;99.90;;;;;;5014528;28;20072;-76
2022/01/29 06:31:06;;;;;;;0.75;0.75;;;6.00;99.90;;;;;;5014935;28;20132;-76
2022/01/29 06:33:32;;;;;;;1.30;1.13;;;5.90;99.90;;;;;;5014883;28;20101;-76
2022/01/29 06:35:58;;;;;;;1.10;1.08;;;5.90;99.90;;;;;;5014456;28;20120;-76
2022/01/29 06:38:24;;;;;;;0.63;0.50;;;5.90;99.90;;;;;;5010271;28;20033;-76
2022/01/29 06:40:50;;;;;;;0.38;0.38;;;6.00;99.90;;;;;;4999024;28;20030;-87
2022/01/29 06:43:16;;;;;;;1.25;1.15;;;5.90;99.90;;;;;;5013886;28;20392;-87
2022/01/29 06:45:44;;;;;;;0.43;0.43;;;5.90;99.90;;;;;;5014559;28;20025;-87
2022/01/29 06:48:10;;;;;;;1.23;1.13;;;5.90;99.90;;;;;;5014216;28;20017;-76
2022/01/29 06:50:37;;;;;;;3.10;1.38;;;5.90;99.90;;;;;;5013962;28;20088;-87
2022/01/29 06:53:04;;;;;;;2.53;1.40;;;5.90;99.90;;;;;;5011493;28;20482;-87
2022/01/29 06:55:30;;;;;;;0.82;0.82;;;5.90;99.90;;;;;;5014859;28;20026;-87
2022/01/29 06:57:56;;;;;;;0.30;0.30;;;5.90;99.90;;;;;;5013744;28;20120;-76
2022/01/29 07:00:21;;;;;;;2.55;1.23;;;5.90;99.90;;;;;;5001817;28;20053;-87
2022/01/29 07:02:47;;;;;;;1.48;1.38;;;5.90;99.90;;;;;;5014402;28;20477;-87
2022/01/29 07:05:13;;;;;;;1.58;1.48;;;5.90;99.90;;;;;;5013240;28;20405;-76
2022/01/29 07:07:39;;;;;;;0.35;0.35;;;5.90;99.90;;;;;;5011505;28;20026;-87
2022/01/29 07:10:07;;;;;;;0.75;0.75;;;5.90;99.90;;;;;;5013805;28;20034;-87
2022/01/29 07:12:33;;;;;;;0.20;0.20;;;5.90;99.90;;;;;;5013570;28;20041;-76
2022/01/29 07:14:59;;;;;;;0.95;0.40;;;5.90;99.90;;;;;;5014113;28;20034;-87
2022/01/29 07:17:24;;;;;;;1.73;0.88;;;5.90;99.90;;;;;;5020941;28;20058;-87
2022/01/29 07:19:52;;;;;;;0.95;0.95;;;5.90;99.90;;;;;;5013880;28;20030;-76
2022/01/29 07:22:20;;;;;;;0.93;0.93;;;5.90;99.90;;;;;;5013713;28;20018;-87
2022/01/29 07:24:46;;;;;;;1.48;1.20;;;5.90;99.90;;;;;;5013853;28;20400;-76
2022/01/29 07:27:13;;;;;;;2.25;2.05;;;5.90;99.90;;;;;;5013834;28;20080;-76
2022/01/29 07:29:40;;;;;;;1.23;1.13;;;5.90;99.90;;;;;;5011260;28;20025;-76
2022/01/29 07:32:06;;;;;;;0.98;0.70;;;5.90;99.90;;;;;;5013768;28;20396;-87
2022/01/29 07:34:32;;;;;;;1.85;1.30;;;5.90;99.90;;;;;;5013947;28;20113;-76
2022/01/29 07:36:58;;;;;;;0.20;0.20;;;5.90;99.90;;;;;;5013938;28;20030;-76
2022/01/29 07:39:25;;;;;;;0.40;0.40;;;5.80;99.90;;;;;;5013492;28;20477;-76
2022/01/29 07:41:51;;;;;;;0.75;0.75;;;5.90;99.90;;;;;;5013665;28;20014;-79
2022/01/29 07:44:17;;;;;;;0.00;0.00;;;5.90;99.90;;;;;;5002496;28;20033;-76
2022/01/29 07:46:43;;;;;;;0.70;0.70;;;5.90;99.90;;;;;;5027832;28;20069;-86
2022/01/29 07:49:09;;;;;;;0.60;0.60;;;5.90;99.90;;;;;;5015227;28;20073;-76
2022/01/29 07:51:36;;;;;;;1.02;1.02;;;5.80;99.90;;;;;;5013631;28;20492;-76
2022/01/29 07:54:02;;;;;;;1.30;0.98;;;5.90;99.90;;;;;;5001974;28;20072;-76
2022/01/29 07:56:28;;;;;;;0.60;0.55;;;5.90;99.90;;;;;;5008376;28;20033;-87
2022/01/29 07:58:53;;;;;;;3.72;2.78;;;5.90;99.90;;;;;;5012617;28;20057;-76
2022/01/29 08:01:19;;;;;;;0.45;0.45;;;5.90;99.90;;;;;;5013245;28;20413;-87
2022/01/29 08:03:49;;;;;;;1.35;1.33;;;5.80;99.90;;;;;;5013149;28;20176;-76
2022/01/29 08:06:16;;;;;;;0.65;0.65;;;5.80;99.90;;;;;;5012652;28;20370;-87
2022/01/29 08:08:42;;;;;;;1.85;1.33;;;5.80;99.90;;;;;;5009077;28;20408;-78
2022/01/29 08:11:09;;;;;;;0.88;0.88;;;5.80;99.90;;;;;;5003768;28;20098;-76
2022/01/29 08:13:35;;;;;;;0.73;0.73;;;5.80;99.90;;;;;;5009390;28;20033;-77
2022/01/29 08:16:02;;;;;;;0.40;0.40;;;5.80;99.90;;;;;;5012901;28;20108;-85
2022/01/29 08:18:28;;;;;;;2.15;2.00;;;5.90;99.90;;;;;;5010735;28;20528;-75
2022/01/29 08:20:53;;;;;;;0.30;0.30;;;5.90;99.90;;;;;;5013221;28;20050;-76
2022/01/29 08:23:19;;;;;;;0.63;0.63;;;5.80;99.90;;;;;;5012719;28;20536;-87
2022/01/29 08:25:45;;;;;;;2.30;1.45;;;5.80;99.90;;;;;;5013058;28;20068;-76
2022/01/29 08:28:11;;;;;;;0.70;0.70;;;5.80;99.90;;;;;;5006715;28;20030;-87
2022/01/29 08:30:37;;;;;;;0.28;0.28;;;5.90;99.90;;;;;;5015744;28;20497;-87
2022/01/29 08:33:03;;;;;;;0.40;0.40;;;5.90;99.90;;;;;;5013109;28;20461;-87
2022/01/29 08:35:29;;;;;;;1.15;0.88;;;5.90;99.90;;;;;;5011662;28;20036;-88
2022/01/29 08:37:56;;;;;;;1.15;1.10;;;6.00;99.90;;;;;;5010485;28;20029;-87
2022/01/29 08:40:22;;;;;;;0.40;0.40;;;6.00;99.90;;;;;;5013020;28;20029;-77
2022/01/29 08:42:48;;;;;;;0.47;0.47;;;6.00;99.90;;;;;;5012862;28;20033;-76
2022/01/29 08:45:14;;;;;;;2.55;1.90;;;5.90;99.90;;;;;;5012845;28;20442;-87
2022/01/29 08:47:41;;;;;;;4.32;1.52;;;6.00;99.90;;;;;;5009225;28;20025;-87
2022/01/29 08:50:08;;;;;;;0.70;0.70;;;6.00;99.90;;;;;;5016251;28;20022;-76
2022/01/29 08:52:35;;;;;;;0.10;0.10;;;6.00;99.90;;;;;;5010928;28;20069;-76
2022/01/29 08:55:01;;;;;;;0.75;0.75;;;6.00;99.90;;;;;;5003315;28;20046;-76
2022/01/29 08:57:27;;;;;;;0.28;0.28;;;6.00;99.90;;;;;;5012789;28;20533;-87
2022/01/29 08:59:53;;;;;;;0.50;0.50;;;6.00;99.90;;;;;;5012688;28;20029;-76
2022/01/29 09:02:18;;;;;;;0.95;0.95;;;6.10;99.90;;;;;;5005657;28;20022;-76
2022/01/29 09:04:44;;;;;;;0.65;0.65;;;6.10;99.90;;;;;;5012965;28;20413;-76
2022/01/29 09:07:10;;;;;;;1.10;1.05;;;6.20;99.90;;;;;;5013863;28;20540;-76
2022/01/29 09:09:36;;;;;;;0.98;0.90;;;6.20;99.90;;;;;;5014979;28;20032;-76
2022/01/29 09:12:02;;;;;;;1.15;1.08;;;6.20;99.90;;;;;;5034676;28;20041;-81
2022/01/29 09:14:28;;;;;;;0.55;0.55;;;6.20;99.90;;;;;;5020958;28;20034;-76
2022/01/29 09:16:54;;;;;;;0.40;0.40;;;6.20;99.90;;;;;;5016056;28;20446;-76
2022/01/29 09:19:20;;;;;;;0.68;0.68;;;6.30;99.90;;;;;;5015251;28;20061;-87
2022/01/29 09:21:45;;;;;;;0.35;0.35;;;6.30;99.90;;;;;;5015551;28;20026;-76
2022/01/29 09:24:11;;;;;;;2.65;1.75;;;6.30;99.90;;;;;;5016072;28;20030;-76
2022/01/29 09:26:37;;;;;;;0.35;0.35;;;6.30;99.90;;;;;;5011930;28;20025;-76
2022/01/29 09:29:03;;;;;;;0.40;0.40;;;6.30;99.90;;;;;;5011846;28;20026;-87
2022/01/29 09:31:29;;;;;;;0.73;0.73;;;6.30;99.90;;;;;;5026524;28;20024;-85
2022/01/29 09:33:57;;;;;;;0.43;0.43;;;6.30;99.90;;;;;;5017616;28;20409;-76
2022/01/29 09:36:23;;;;;;;3.75;0.77;;;6.30;99.90;;;;;;5008731;28;20402;-76
2022/01/29 09:38:48;;;;;;;0.25;0.25;;;6.30;99.90;;;;;;5015688;28;20034;-76
2022/01/29 09:41:18;;;;;;;1.42;1.25;;;6.30;99.90;;;;;;5026916;28;20036;-85
2022/01/29 09:43:45;;;;;;;0.82;0.82;;;6.30;99.90;;;;;;5017915;28;20658;-77
2022/01/29 09:46:12;;;;;;;0.88;0.88;;;6.40;99.90;;;;;;5015599;28;20096;-76
2022/01/29 09:48:38;;;;;;;1.33;1.23;;;6.40;99.90;;;;;;5015444;28;20026;-76
2022/01/29 09:51:08;;;;;;;0.75;0.75;;;6.40;99.90;;;;;;5013892;28;20010;-76
2022/01/29 09:53:33;;;;;;;1.98;1.88;;;6.40;99.90;;;;;;5007250;28;20033;-86
2022/01/29 09:55:59;;;;;;;1.02;0.80;;;6.50;99.90;;;;;;5014330;28;20022;-76
2022/01/29 09:58:25;;;;;;;0.60;0.40;;;6.50;99.90;;;;;;5015411;28;20054;-87
2022/01/29 10:00:50;;;;;;;0.68;0.68;;;6.50;99.90;;;;;;5014271;28;20420;-76
2022/01/29 10:03:19;;;;;;;2.05;1.15;;;6.50;99.90;;;;;;5013192;28;20029;-86
2022/01/29 10:05:48;;;;;;;0.20;0.20;;;6.50;99.90;;;;;;5015285;28;20160;-87
2022/01/29 10:08:14;;;;;;;0.10;0.10;;;6.50;99.90;;;;;;5007469;28;20467;-76
2022/01/29 10:10:45;;;;;;;0.70;0.70;;;6.50;99.90;;;;;;5004604;28;20026;-76
2022/01/29 10:13:29;;;;;;;1.27;1.17;;;6.60;99.90;;;;;;5014984;28;20081;-75
2022/01/29 10:16:11;;;;;;;0.47;0.47;;;6.60;99.90;;;;;;5014597;28;20033;-86
2022/01/29 10:18:41;;;;;;;0.75;0.75;;;6.60;99.90;;;;;;5013733;28;20018;-76
2022/01/29 10:21:10;;;;;;;0.60;0.57;;;6.70;99.90;;;;;;5015145;28;20386;-86
2022/01/29 10:23:36;;;;;;;0.20;0.20;;;6.70;99.90;;;;;;5003702;28;20025;-76
2022/01/29 10:26:02;;;;;;;0.50;0.50;;;6.70;99.90;;;;;;5015048;28;20018;-76
2022/01/29 10:28:28;;;;;;;0.47;0.47;;;6.70;99.90;;;;;;5013506;28;20111;-76
2022/01/29 10:31:05;;;;;;;0.15;0.15;;;6.80;99.90;;;;;;5014658;28;20061;-86
2022/01/29 10:33:41;;;;;;;0.85;0.85;;;6.80;99.90;;;;;;5020112;28;20025;-86
2022/01/29 10:36:09;;;;;;;0.43;0.43;;;7.00;99.90;;;;;;5010946;28;20041;-76
2022/01/29 10:38:41;;;;;;;4.78;2.25;;;7.00;99.90;;;;;;5014462;28;20034;-76
2022/01/29 10:41:09;;;;;;;0.68;0.68;;;7.00;99.90;;;;;;5014585;28;20033;-76
2022/01/29 10:43:56;;;;;;;1.60;1.50;;;7.10;99.90;;;;;;5014704;28;20049;-76
2022/01/29 10:46:30;;;;;;;0.40;0.40;;;7.10;99.90;;;;;;5004120;28;20029;-86
2022/01/29 10:48:57;;;;;;;2.90;0.93;;;7.10;99.90;;;;;;5011132;28;20030;-76
2022/01/29 10:51:23;;;;;;;0.60;0.60;;;7.10;99.90;;;;;;5015954;28;20025;-81
2022/01/29 10:53:48;;;;;;;0.50;0.50;;;7.10;99.90;;;;;;5014183;28;20493;-76
2022/01/29 10:56:14;;;;;;;5.13;0.75;;;7.20;99.90;;;;;;5014502;28;20034;-86
2022/01/29 10:58:44;;;;;;;0.55;0.55;;;7.20;99.90;;;;;;5012384;28;20064;-76
2022/01/29 11:01:23;;;;;;;1.35;0.52;;;7.30;99.90;;;;;;5012954;28;20084;-76
2022/01/29 11:03:52;;;;;;;0.98;0.98;;;7.30;99.90;;;;;;5009295;28;20036;-75
2022/01/29 11:06:21;;;;;;;0.20;0.20;;;7.30;99.90;;;;;;5014475;28;20029;-75
2022/01/29 11:08:48;;;;;;;0.10;0.10;;;7.30;99.90;;;;;;5012948;28;20025;-76
2022/01/29 11:11:15;;;;;;;1.27;1.25;;;7.30;99.90;;;;;;5014123;28;20036;-75
2022/01/29 11:13:43;;;;;;;2.08;1.95;;;7.20;99.90;;;;;;5013771;28;20076;-76
2022/01/29 11:16:10;;;;;;;0.57;0.57;;;7.20;99.90;;;;;;5013495;28;20101;-76
2022/01/29 11:18:36;;;;;;;5.45;1.83;;;7.20;99.90;;;;;;5013796;28;20045;-86
2022/01/29 11:21:03;;;;;;;0.17;0.17;;;7.10;99.90;;;;;;5014055;28;20074;-75
2022/01/29 11:23:30;;;;;;;0.75;0.75;;;7.20;99.90;;;;;;5011790;28;20101;-75
2022/01/29 11:25:58;;;;;;;3.88;1.75;;;7.30;99.90;;;;;;5012401;28;20026;-76
2022/01/29 11:28:26;;;;;;;1.52;1.42;;;7.30;99.90;;;;;;5013185;28;20149;-87
2022/01/29 11:31:11;;;;;;;0.22;0.22;;;7.40;99.90;;;;;;5014115;28;20022;-80
2022/01/29 11:33:58;;;;;;;2.35;1.08;;;7.30;99.90;;;;;;5012612;28;20109;-86
2022/01/29 11:36:48;;;;;;;2.05;1.50;;;7.40;99.90;;;;;;5011593;28;20037;-82
2022/01/29 11:39:25;;;;;;;2.35;2.05;;;7.30;99.90;;;;;;5012991;28;20076;-76
2022/01/29 11:42:13;;;;;;;1.35;1.27;;;7.40;99.90;;;;;;5012380;28;20117;-75
2022/01/29 11:44:44;;;;;;;3.55;1.73;;;7.40;99.90;;;;;;5010110;28;20038;-87
2022/01/29 11:47:25;;;;;;;1.80;1.70;;;7.40;99.90;;;;;;5013753;28;20018;-75
2022/01/29 11:49:52;;;;;;;1.85;1.08;;;7.30;99.90;;;;;;5014227;28;20049;-88
2022/01/29 11:52:22;;;;;;;2.22;1.90;;;7.40;99.90;;;;;;5013189;28;20029;-76
2022/01/29 11:55:01;;;;;;;1.85;0.93;;;7.40;99.90;;;;;;4999807;28;20436;-76
2022/01/29 11:57:27;;;;;;;0.43;0.43;;;7.30;99.90;;;;;;5013406;28;20054;-76
2022/01/29 11:59:52;;;;;;;0.57;0.57;;;7.40;99.90;;;;;;5013214;28;20042;-77
2022/01/29 12:02:18;;;;;;;0.95;0.60;;;7.40;99.90;;;;;;5012106;28;20375;-87
2022/01/29 12:04:55;;;;;;;0.95;0.95;;;7.40;99.90;;;;;;5001883;28;20034;-76
2022/01/29 12:09:53;;;;;;;3.03;0.82;;;7.40;99.90;;;;;;5004974;28;20084;-76
2022/01/29 12:12:30;;;;;;;2.03;0.73;;;7.40;99.90;;;;;;5009590;28;20030;-76
2022/01/29 12:14:58;;;;;;;0.50;0.50;;;7.40;99.90;;;;;;5013278;28;20393;-76
2022/01/29 12:17:41;;;;;;;1.98;1.00;;;7.40;99.90;;;;;;5001387;28;20049;-87
2022/01/29 12:20:08;;;;;;;1.00;1.00;;;7.40;99.90;;;;;;5013468;28;20029;-76
2022/01/29 12:22:36;;;;;;;0.68;0.68;;;7.40;99.90;;;;;;5013225;28;20026;-76
2022/01/29 12:25:06;;;;;;;0.55;0.55;;;7.40;99.90;;;;;;5009058;28;20053;-88
2022/01/29 12:27:50;;;;;;;0.95;0.95;;;7.40;99.90;;;;;;5009243;28;20097;-76
2022/01/29 12:30:23;;;;;;;0.52;0.52;;;7.50;99.90;;;;;;5015419;28;20029;-76
2022/01/29 12:33:00;;;;;;;0.40;0.40;;;7.40;99.90;;;;;;5013131;28;20036;-76
2022/01/29 12:35:35;;;;;;;0.70;0.55;;;7.40;99.90;;;;;;5013110;28;20026;-76
2022/01/29 12:38:01;;;;;;;0.95;0.95;;;7.50;99.90;;;;;;5010282;28;20485;-76
2022/01/29 12:40:27;;;;;;;0.85;0.70;;;7.60;99.90;;;;;;5012807;28;20037;-76
2022/01/29 12:42:58;;;;;;;0.82;0.82;;;7.60;99.90;;;;;;5016973;28;20022;-76
2022/01/29 12:45:28;;;;;;;0.47;0.47;;;7.60;99.90;;;;;;5016756;28;20304;-87
2022/01/29 12:48:26;;;;;;;0.82;0.82;;;7.70;99.90;;;;;;5016785;28;20018;-76
2022/01/29 12:51:04;;;;;;;3.92;0.93;;;7.60;99.90;;;;;;4969904;28;20498;-87
2022/01/29 12:53:29;;;;;;;1.17;0.63;;;7.60;99.90;;;;;;5016338;28;20018;-76
2022/01/29 12:56:03;;;;;;;1.05;1.05;;;7.60;99.90;;;;;;5016884;28;20456;-76
2022/01/29 12:58:35;;;;;;;3.90;1.02;;;7.60;99.90;;;;;;5016630;28;20544;-87
2022/01/29 13:01:19;;;;;;;0.88;0.88;;;7.60;99.90;;;;;;5015683;28;20028;-76
2022/01/29 13:03:44;;;;;;;0.43;0.43;;;7.60;99.90;;;;;;5016367;28;20033;-75
2022/01/29 13:06:13;;;;;;;0.40;0.28;;;7.60;99.90;;;;;;5015568;28;20029;-76
2022/01/29 13:08:39;;;;;;;0.60;0.60;;;7.60;99.90;;;;;;5014382;28;20021;-76
2022/01/29 13:11:28;;;;;;;0.57;0.57;;;7.60;99.90;;;;;;5015818;28;20034;-76
2022/01/29 13:13:54;;;;;;;0.77;0.77;;;7.70;99.90;;;;;;5016014;28;20041;-76
2022/01/29 13:16:20;;;;;;;1.55;0.73;;;7.70;99.90;;;;;;5017164;28;20030;-87